PBD187 UUWW-URML
Flight info
| Callsign | PBD187 |
|---|---|
| Flight time | N/A |
| Altitude | 35000 |
| Route | N0450F350 TOGMO M56 ABAGI B105 NIMTA/K0851F360 B105 NATIT DCT MOLED N50 LIDUS G242 ZG DCT ITAKA DCT RIRAN URML/32 |
| Aircraft | B738/M-VGDW/C |
Departure
| Time | N/A |
|---|---|
| Airport | Vnukovo International Airport (UUWW) |
Arrival
| Time | 2026-05-07 17:32 |
|---|---|
| Airport | Makhachkala Uytash International Airport (URML) |
| Time | Latitude | Longitude | Altitude | Speed | Heading |
|---|---|---|---|---|---|
| 2026-05-07 17:15 | 43.47848 | 48.65582 | 21355 ft | 432 kts | 182° |
| 2026-05-07 17:16 | 43.44857 | 48.65590 | 20722 ft | 427 kts | 183° |
| 2026-05-07 17:16 | 43.38967 | 48.65604 | 19498 ft | 420 kts | 183° |
| 2026-05-07 17:16 | 43.36060 | 48.65611 | 18889 ft | 416 kts | 183° |
| 2026-05-07 17:17 | 43.33173 | 48.65618 | 18258 ft | 414 kts | 183° |
| 2026-05-07 17:17 | 43.30298 | 48.65625 | 17576 ft | 412 kts | 183° |
| 2026-05-07 17:17 | 43.27483 | 48.65632 | 16943 ft | 408 kts | 183° |
| 2026-05-07 17:17 | 43.24653 | 48.65639 | 16321 ft | 404 kts | 182° |
| 2026-05-07 17:18 | 43.21853 | 48.65646 | 15692 ft | 402 kts | 182° |
| 2026-05-07 17:18 | 43.19061 | 48.65653 | 15082 ft | 399 kts | 182° |
| 2026-05-07 17:18 | 43.16311 | 48.65446 | 14477 ft | 393 kts | 194° |
| 2026-05-07 17:18 | 43.13814 | 48.64094 | 13945 ft | 382 kts | 214° |
| 2026-05-07 17:19 | 43.11776 | 48.61852 | 13537 ft | 372 kts | 230° |
| 2026-05-07 17:19 | 43.10248 | 48.58995 | 13165 ft | 376 kts | 239° |
| 2026-05-07 17:19 | 43.08837 | 48.55987 | 12754 ft | 372 kts | 240° |
| 2026-05-07 17:19 | 43.07474 | 48.53025 | 12367 ft | 364 kts | 240° |
| 2026-05-07 17:20 | 43.06137 | 48.50116 | 12001 ft | 360 kts | 240° |
| 2026-05-07 17:20 | 43.04780 | 48.47178 | 11654 ft | 371 kts | 240° |
| 2026-05-07 17:20 | 43.03384 | 48.44177 | 11276 ft | 376 kts | 239° |
| 2026-05-07 17:20 | 43.01976 | 48.41168 | 10892 ft | 375 kts | 239° |
| 2026-05-07 17:21 | 43.00572 | 48.38185 | 10515 ft | 370 kts | 239° |
| 2026-05-07 17:21 | 42.99190 | 48.35259 | 10137 ft | 362 kts | 239° |
| 2026-05-07 17:21 | 42.97841 | 48.32410 | 9932 ft | 348 kts | 239° |
| 2026-05-07 17:21 | 42.96579 | 48.29752 | 9908 ft | 321 kts | 239° |
| 2026-05-07 17:22 | 42.95408 | 48.27286 | 9798 ft | 300 kts | 239° |
| 2026-05-07 17:22 | 42.94309 | 48.24971 | 9661 ft | 282 kts | 240° |
| 2026-05-07 17:22 | 42.93273 | 48.22791 | 9528 ft | 266 kts | 240° |
| 2026-05-07 17:22 | 42.92277 | 48.20691 | 9203 ft | 264 kts | 240° |
| 2026-05-07 17:23 | 42.91283 | 48.18593 | 8940 ft | 261 kts | 240° |
| 2026-05-07 17:23 | 42.90301 | 48.16523 | 8670 ft | 260 kts | 240° |
| 2026-05-07 17:23 | 42.89325 | 48.14470 | 8381 ft | 259 kts | 240° |
| 2026-05-07 17:23 | 42.88350 | 48.12420 | 8108 ft | 257 kts | 240° |
| 2026-05-07 17:24 | 42.87378 | 48.10378 | 7821 ft | 256 kts | 240° |
| 2026-05-07 17:24 | 42.86422 | 48.08372 | 7571 ft | 254 kts | 240° |
| 2026-05-07 17:24 | 42.85478 | 48.06397 | 7510 ft | 244 kts | 241° |
| 2026-05-07 17:24 | 42.84575 | 48.04508 | 7481 ft | 232 kts | 241° |
| 2026-05-07 17:25 | 42.83710 | 48.02699 | 7358 ft | 226 kts | 241° |
| 2026-05-07 17:25 | 42.82854 | 48.00906 | 7091 ft | 226 kts | 241° |
| 2026-05-07 17:25 | 42.81973 | 47.99055 | 6435 ft | 244 kts | 241° |
| 2026-05-07 17:25 | 42.81031 | 47.97079 | 5965 ft | 249 kts | 241° |
| 2026-05-07 17:26 | 42.80392 | 47.95745 | 5671 ft | 249 kts | 240° |
| 2026-05-07 17:26 | 42.79444 | 47.93767 | 5194 ft | 250 kts | 240° |
| 2026-05-07 17:26 | 42.78496 | 47.91792 | 4767 ft | 248 kts | 240° |
| 2026-05-07 17:26 | 42.77559 | 47.89841 | 4430 ft | 243 kts | 240° |
| 2026-05-07 17:27 | 42.76655 | 47.87960 | 4225 ft | 234 kts | 240° |
| 2026-05-07 17:27 | 42.75780 | 47.86141 | 4025 ft | 224 kts | 240° |
| 2026-05-07 17:27 | 42.74962 | 47.84440 | 3945 ft | 206 kts | 240° |
| 2026-05-07 17:27 | 42.74200 | 47.82858 | 3747 ft | 195 kts | 240° |
| 2026-05-07 17:28 | 42.73461 | 47.81318 | 3348 ft | 195 kts | 240° |
| 2026-05-07 17:28 | 42.72723 | 47.79784 | 3027 ft | 191 kts | 240° |
| 2026-05-07 17:28 | 42.72016 | 47.78318 | 2812 ft | 183 kts | 240° |
| 2026-05-07 17:28 | 42.71339 | 47.76861 | 2608 ft | 181 kts | 248° |
| 2026-05-07 17:29 | 42.71256 | 47.75216 | 2262 ft | 173 kts | 296° |
| 2026-05-07 17:29 | 42.71936 | 47.73955 | 2095 ft | 160 kts | 312° |
| 2026-05-07 17:29 | 42.72734 | 47.72999 | 1920 ft | 142 kts | 322° |
| 2026-05-07 17:29 | 42.73519 | 47.72237 | 1708 ft | 139 kts | 325° |
| 2026-05-07 17:30 | 42.74330 | 47.71521 | 1519 ft | 140 kts | 326° |
| 2026-05-07 17:30 | 42.75161 | 47.70806 | 1335 ft | 143 kts | 326° |
| 2026-05-07 17:30 | 42.76005 | 47.70085 | 1144 ft | 143 kts | 326° |
| 2026-05-07 17:30 | 42.76850 | 47.69363 | 948 ft | 143 kts | 326° |
| 2026-05-07 17:31 | 42.77693 | 47.68643 | 776 ft | 142 kts | 326° |
| 2026-05-07 17:31 | 42.78540 | 47.67935 | 544 ft | 143 kts | 325° |
| 2026-05-07 17:31 | 42.79369 | 47.67221 | 341 ft | 138 kts | 326° |
| 2026-05-07 17:31 | 42.80187 | 47.66521 | 177 ft | 137 kts | 325° |
| 2026-05-07 17:32 | 42.80984 | 47.65834 | 27 ft | 129 kts | 326° |
| 2026-05-07 17:32 | 42.81658 | 47.65262 | 19 ft | 95 kts | 329° |
| 2026-05-07 17:32 | 42.81981 | 47.64989 | 18 ft | 26 kts | 329° |
| 2026-05-07 17:32 | 42.82114 | 47.64881 | 20 ft | 19 kts | 335° |
| 2026-05-07 17:33 | 42.82168 | 47.64852 | 21 ft | 7 kts | 339° |
| 2026-05-07 17:33 | 42.82173 | 47.64839 | 21 ft | 1 kts | 257° |
| 2026-05-07 17:33 | 42.82166 | 47.64839 | 21 ft | 1 kts | 166° |
| 2026-05-07 17:33 | 42.82146 | 47.64853 | 21 ft | 6 kts | 153° |
| 2026-05-07 17:34 | 42.82085 | 47.64902 | 20 ft | 14 kts | 148° |
| 2026-05-07 17:34 | 42.81976 | 47.64993 | 18 ft | 23 kts | 148° |
| 2026-05-07 17:34 | 42.81917 | 47.65089 | 19 ft | 13 kts | 89° |
| 2026-05-07 17:34 | 42.81947 | 47.65175 | 21 ft | 7 kts | 60° |
| 2026-05-07 17:35 | 42.81951 | 47.65186 | 20 ft | 0 kts | 60° |
| 2026-05-07 17:35 | 42.81957 | 47.65199 | 20 ft | 4 kts | 59° |
| 2026-05-07 17:35 | 42.81984 | 47.65259 | 20 ft | 11 kts | 58° |
| 2026-05-07 17:36 | 42.82024 | 47.65349 | 20 ft | 10 kts | 65° |
| 2026-05-07 17:36 | 42.82055 | 47.65431 | 20 ft | 8 kts | 59° |
| 2026-05-07 17:36 | 42.82073 | 47.65471 | 20 ft | 0 kts | 59° |
| 2026-05-07 17:36 | 42.82075 | 47.65476 | 20 ft | 1 kts | 58° |
| 2026-05-07 17:37 | 42.82076 | 47.65479 | 20 ft | 0 kts | 58° |
| 2026-05-07 17:37 | 42.82078 | 47.65482 | 20 ft | 0 kts | 58° |
| 2026-05-07 17:37 | 42.82078 | 47.65484 | 20 ft | 0 kts | 58° |